EHLW

Leeuwarden Air Base Airport

Leeuwarden, The Netherlands
METAR EHLW 141655Z AUTO 08004KT 050V140 9999 OVC049 02/M02 Q1026 BLU
Observed Flight Rules
Dec-14 @ 16:55 UTC (15 minutes ago) Visual Flight Rules
Wind Visibility Clouds
80° at 4 knots 10,000+ meters
  • Overcast at 4,900' AGL
Temperatures Readings
Current 2°C / 36°F
Dewpoint -2°C / 28°F
Humidity 75%
Altimeter 30.3" Hg
Pressure 1026 hPa
Elevation 2
METAR EHLW 141655Z AUTO 08004KT 050V140 9999 OVC049 02/M02 Q1026 BLU
Observed Flight Rules
Dec-14 @ 16:55 UTC
(15 minutes ago)
VFR
Wind Visibility
80° at 4 knots 10,000+ meters
Clouds
  • Overcast at 4,900' AGL
Temperature Dewpoint
2°C / 36°F -2°C / 28°F
Humidity Altimeter Pressure
75% 30.3" Hg 1026 hPa